Time;durP1;ratioP1;P1;durP2;ratioP2;P2;SDS_P1;SDS_P2;PMS_P1;PMS_P2;Temp;Humidity;BMP_temperature;BMP_pressure;BME280_temperature;BME280_humidity;BME280_pressure;Samples;Min_cycle;Max_cycle;Signal;HPM_P1;HPM_P2
2021/09/19 00:02:18;;;;;;;6.95;5.18;;;;;;;10.76;100.00;101432.94;10496912;28;20068;-81
2021/09/19 00:07:20;;;;;;;6.63;6.00;;;;;;;10.71;100.00;101432.84;10478718;28;20152;-81
2021/09/19 00:12:22;;;;;;;6.22;5.63;;;;;;;10.68;100.00;101427.59;10490945;28;20075;-81
2021/09/19 00:17:23;;;;;;;6.20;5.60;;;;;;;10.63;100.00;101426.63;10481917;28;20056;-81
2021/09/19 00:22:25;;;;;;;7.53;5.88;;;;;;;10.61;100.00;101425.72;10493521;28;20077;-81
2021/09/19 00:27:26;;;;;;;8.10;6.03;;;;;;;10.63;100.00;101418.00;10478846;28;20067;-81
2021/09/19 00:32:28;;;;;;;6.25;5.10;;;;;;;10.52;100.00;101415.13;10484575;28;20049;-81
2021/09/19 00:37:30;;;;;;;7.85;5.80;;;;;;;10.55;100.00;101412.59;10481110;28;20060;-81
2021/09/19 00:42:32;;;;;;;5.35;4.85;;;;;;;10.51;100.00;101409.09;10483244;28;20136;-81
2021/09/19 00:47:34;;;;;;;7.38;6.28;;;;;;;10.45;100.00;101405.50;10491339;28;20052;-81
2021/09/19 00:52:38;;;;;;;7.03;5.30;;;;;;;10.32;100.00;101397.44;10479694;28;20060;-81
2021/09/19 00:57:42;;;;;;;6.30;5.47;;;;;;;10.35;100.00;101394.91;10485367;28;20057;-81
2021/09/19 01:02:44;;;;;;;7.78;6.10;;;;;;;10.27;100.00;101405.91;10471055;28;20052;-82
2021/09/19 01:07:49;;;;;;;7.28;6.35;;;;;;;10.28;100.00;101402.50;10488571;28;20060;-81
2021/09/19 01:12:53;;;;;;;7.15;6.45;;;;;;;10.20;100.00;101401.38;10480030;28;20436;-82
2021/09/19 01:17:55;;;;;;;5.68;5.18;;;;;;;10.19;100.00;101403.09;10476072;28;20477;-81
2021/09/19 01:23:11;;;;;;;8.93;6.72;;;;;;;10.26;100.00;101407.59;10474834;28;20057;-82
2021/09/19 01:28:13;;;;;;;8.40;7.57;;;;;;;10.51;100.00;101400.47;10491938;28;20060;-81
2021/09/19 01:33:15;;;;;;;9.90;8.52;;;;;;;10.81;100.00;101393.41;10489015;28;20056;-82
2021/09/19 01:38:22;;;;;;;10.05;8.23;;;;;;;10.65;100.00;101393.88;10489692;28;20534;-82
2021/09/19 01:43:24;;;;;;;17.02;13.88;;;;;;;11.39;100.00;101389.47;10488258;28;20496;-83
2021/09/19 01:48:26;;;;;;;19.23;16.25;;;;;;;11.66;100.00;101385.66;10488592;28;20079;-83
2021/09/19 01:53:27;;;;;;;19.67;16.80;;;;;;;11.70;100.00;101377.13;10504912;28;20052;-83
2021/09/19 01:58:29;;;;;;;28.42;20.05;;;;;;;12.01;100.00;101386.34;10531863;28;20079;-82
2021/09/19 02:03:30;;;;;;;26.30;19.70;;;;;;;12.09;100.00;101366.63;10511176;28;20089;-82
2021/09/19 02:08:35;;;;;;;29.83;21.58;;;;;;;12.12;100.00;101363.19;10499905;28;20105;-82
2021/09/19 02:13:39;;;;;;;34.00;20.92;;;;;;;12.08;100.00;101362.28;10516835;28;20066;-82
2021/09/19 02:18:42;;;;;;;30.95;21.30;;;;;;;12.10;100.00;101351.94;10527311;28;20047;-83
2021/09/19 02:23:43;;;;;;;31.50;22.50;;;;;;;12.26;100.00;101347.88;10519022;28;20488;-82
2021/09/19 02:28:44;;;;;;;27.85;22.23;;;;;;;12.27;100.00;101350.47;10504103;28;20064;-82
2021/09/19 02:33:46;;;;;;;29.83;21.27;;;;;;;12.26;100.00;101347.88;10506695;28;20419;-82
2021/09/19 02:38:48;;;;;;;29.52;22.27;;;;;;;12.29;100.00;101353.97;10511880;28;20055;-82
2021/09/19 02:43:49;;;;;;;28.25;22.05;;;;;;;12.35;100.00;101348.88;10511777;28;20044;-82
2021/09/19 02:48:51;;;;;;;31.05;21.60;;;;;;;12.34;100.00;101339.34;10483517;28;20527;-83
2021/09/19 02:53:52;;;;;;;27.33;21.42;;;;;;;12.40;100.00;101339.44;10520144;28;20059;-82
2021/09/19 02:58:54;;;;;;;27.42;20.48;;;;;;;12.43;100.00;101331.72;10542969;28;20064;-82
2021/09/19 03:03:55;;;;;;;25.63;20.70;;;;;;;12.39;100.00;101335.09;10496980;28;20055;-83
2021/09/19 03:08:57;;;;;;;24.65;19.50;;;;;;;12.50;100.00;101334.41;10504878;28;20143;-83
2021/09/19 03:13:59;;;;;;;25.52;20.17;;;;;;;12.40;100.00;101341.16;10501312;28;20059;-83
2021/09/19 03:19:00;;;;;;;25.25;19.42;;;;;;;12.48;100.00;101339.56;10509230;28;20542;-83
2021/09/19 03:24:02;;;;;;;24.63;19.67;;;;;;;12.51;100.00;101342.19;10513712;28;20044;-82
2021/09/19 03:29:04;;;;;;;26.48;20.42;;;;;;;12.56;100.00;101331.91;10508212;28;20058;-82
2021/09/19 03:34:05;;;;;;;24.63;20.13;;;;;;;12.46;100.00;101330.88;10506537;28;20048;-83
2021/09/19 03:39:07;;;;;;;25.98;19.70;;;;;;;12.55;100.00;101327.56;10522777;28;20407;-82
2021/09/19 03:44:10;;;;;;;25.25;18.83;;;;;;;12.47;100.00;101330.88;10495666;28;20056;-82
2021/09/19 03:49:12;;;;;;;22.75;18.50;;;;;;;12.44;100.00;101322.22;10523101;28;20056;-83
2021/09/19 03:54:13;;;;;;;26.38;20.20;;;;;;;12.43;100.00;101326.53;10495379;28;20048;-83
2021/09/19 03:59:15;;;;;;;27.27;18.90;;;;;;;12.41;100.00;101333.41;10521488;28;20408;-83
2021/09/19 04:04:16;;;;;;;21.65;18.40;;;;;;;12.40;100.00;101339.44;10515730;28;20503;-83
2021/09/19 04:09:18;;;;;;;24.08;17.00;;;;;;;12.39;100.00;101340.28;10509096;28;20055;-83
2021/09/19 04:14:20;;;;;;;24.60;18.40;;;;;;;12.37;100.00;101339.41;10499410;28;20059;-83
2021/09/19 04:19:21;;;;;;;24.77;18.38;;;;;;;12.30;100.00;101337.53;10495710;28;20373;-83
2021/09/19 04:24:23;;;;;;;26.33;18.63;;;;;;;12.38;100.00;101342.88;10536543;28;20055;-82
2021/09/19 04:29:24;;;;;;;23.15;18.70;;;;;;;12.36;100.00;101331.56;10529518;28;20480;-83
2021/09/19 04:34:26;;;;;;;25.33;18.08;;;;;;;12.38;100.00;101335.09;10520726;28;20056;-82
2021/09/19 04:39:28;;;;;;;24.15;18.45;;;;;;;12.43;100.00;101341.22;10526609;28;20143;-82
2021/09/19 04:44:29;;;;;;;23.13;17.77;;;;;;;12.42;100.00;101344.66;10519262;28;20535;-83
2021/09/19 04:49:31;;;;;;;22.55;17.10;;;;;;;12.40;100.00;101335.97;10519242;28;20414;-83
2021/09/19 04:54:34;;;;;;;23.13;16.90;;;;;;;12.33;100.00;101337.59;10515520;28;20052;-83
2021/09/19 04:59:35;;;;;;;20.98;16.73;;;;;;;12.38;100.00;101335.97;10511560;28;20063;-82
2021/09/19 05:04:37;;;;;;;20.60;17.05;;;;;;;12.29;100.00;101327.16;10487008;28;20071;-82
2021/09/19 05:09:40;;;;;;;22.33;17.05;;;;;;;12.24;100.00;101326.19;10521435;28;20056;-82
2021/09/19 05:14:42;;;;;;;22.35;17.02;;;;;;;12.18;100.00;101325.25;10515189;28;20048;-82
2021/09/19 05:19:43;;;;;;;18.95;15.75;;;;;;;12.12;100.00;101326.88;10518266;28;20139;-83
2021/09/19 05:24:45;;;;;;;17.02;14.20;;;;;;;11.99;100.00;101332.72;10501162;28;20052;-83
2021/09/19 05:29:46;;;;;;;16.70;14.90;;;;;;;11.99;100.00;101323.22;10516696;28;20051;-82
2021/09/19 05:34:48;;;;;;;17.00;14.15;;;;;;;11.94;100.00;101333.50;10515449;28;20397;-82
2021/09/19 05:39:49;;;;;;;16.15;13.25;;;;;;;11.88;100.00;101335.13;10515350;28;20078;-83
2021/09/19 05:44:51;;;;;;;18.95;14.63;;;;;;;11.88;100.00;101333.41;10517652;28;20051;-83
2021/09/19 05:49:52;;;;;;;19.30;15.60;;;;;;;11.86;100.00;101336.84;10500911;28;20060;-83
2021/09/19 05:54:54;;;;;;;19.70;16.17;;;;;;;11.87;100.00;101344.63;10498906;28;20049;-82
2021/09/19 05:59:56;;;;;;;21.30;16.05;;;;;;;11.91;100.00;101329.97;10508415;28;20078;-83
2021/09/19 06:04:57;;;;;;;19.35;16.30;;;;;;;11.96;100.00;101338.72;10499099;28;20388;-84
2021/09/19 06:09:59;;;;;;;18.52;14.70;;;;;;;12.02;100.00;101341.41;10526159;28;20056;-83
2021/09/19 06:15:00;;;;;;;18.13;14.52;;;;;;;12.13;100.00;101346.78;10512013;28;20064;-83
2021/09/19 06:20:03;;;;;;;17.80;15.02;;;;;;;12.34;100.00;101362.69;10512174;28;20047;-83
2021/09/19 06:25:05;;;;;;;16.00;13.98;;;;;;;12.42;100.00;101360.22;10486736;28;20052;-82
2021/09/19 06:30:08;;;;;;;21.15;15.85;;;;;;;12.51;100.00;101360.38;10500083;28;20060;-82
2021/09/19 06:35:10;;;;;;;16.33;14.63;;;;;;;12.60;100.00;101354.47;10517732;28;20059;-82
2021/09/19 06:40:13;;;;;;;16.77;13.00;;;;;;;12.76;100.00;101358.13;10504961;28;20052;-83
2021/09/19 06:45:14;;;;;;;15.15;13.27;;;;;;;12.92;100.00;101365.28;10502217;28;20052;-83
2021/09/19 06:50:16;;;;;;;18.42;14.40;;;;;;;13.12;100.00;101368.16;10510352;28;20392;-83
2021/09/19 06:55:18;;;;;;;16.65;12.88;;;;;;;13.18;100.00;101374.28;10517120;28;20056;-83
2021/09/19 07:00:19;;;;;;;14.77;11.82;;;;;;;13.12;100.00;101374.22;10525546;28;20052;-83
2021/09/19 07:05:21;;;;;;;13.10;11.20;;;;;;;13.32;100.00;101373.63;10496085;28;20052;-82
2021/09/19 07:10:23;;;;;;;13.90;12.43;;;;;;;13.43;100.00;101372.88;10529867;28;20059;-83
2021/09/19 07:15:24;;;;;;;13.68;11.32;;;;;;;13.50;99.77;101363.41;10522643;28;20064;-82
2021/09/19 07:20:26;;;;;;;11.82;10.55;;;;;;;13.66;98.89;101373.13;10538778;28;20071;-83
2021/09/19 07:25:27;;;;;;;12.50;10.60;;;;;;;13.71;97.62;101375.78;10497179;28;20056;-82
2021/09/19 07:30:31;;;;;;;12.27;10.98;;;;;;;14.02;97.09;101380.47;10508997;28;20052;-83
2021/09/19 07:35:32;;;;;;;10.32;8.35;;;;;;;14.03;96.47;101371.78;10527424;28;20055;-82
2021/09/19 07:40:34;;;;;;;10.98;9.50;;;;;;;14.29;95.23;101386.75;10523108;28;20059;-81
2021/09/19 07:45:35;;;;;;;10.55;9.05;;;;;;;14.28;93.51;101398.00;10495877;28;20504;-82
2021/09/19 07:50:38;;;;;;;11.73;9.30;;;;;;;14.29;94.19;101398.06;10526397;28;20549;-82
2021/09/19 07:55:39;;;;;;;10.00;9.00;;;;;;;14.24;94.15;101394.53;10532667;28;20051;-82
2021/09/19 08:00:41;;;;;;;9.73;8.73;;;;;;;14.36;93.23;101392.91;10518459;28;20049;-83
2021/09/19 08:05:42;;;;;;;8.65;7.85;;;;;;;14.55;92.20;101393.06;10493835;28;20045;-83
2021/09/19 08:10:44;;;;;;;9.65;8.18;;;;;;;14.56;92.75;101402.63;10507130;28;20052;-82
2021/09/19 08:15:46;;;;;;;8.45;7.38;;;;;;;14.76;91.53;101397.56;10513540;28;20499;-84
2021/09/19 08:20:47;;;;;;;7.60;6.90;;;;;;;15.07;91.25;101401.19;10511759;28;20573;-83
2021/09/19 08:25:49;;;;;;;8.10;7.30;;;;;;;15.22;89.99;101394.34;10517591;28;20052;-84
2021/09/19 08:30:51;;;;;;;7.45;6.75;;;;;;;15.20;88.86;101396.03;10513993;28;20063;-83
2021/09/19 08:35:57;;;;;;;7.68;6.80;;;;;;;15.18;90.43;101405.59;10489482;28;20414;-82
2021/09/19 08:40:58;;;;;;;7.45;6.53;;;;;;;15.62;88.18;101401.47;10524414;28;20056;-83
2021/09/19 08:46:01;;;;;;;6.55;5.95;;;;;;;15.54;87.11;101402.28;10505775;28;20052;-84
2021/09/19 08:51:03;;;;;;;8.27;6.93;;;;;;;15.75;86.33;101409.34;10516731;28;20060;-83
2021/09/19 08:56:05;;;;;;;6.82;6.13;;;;;;;15.85;84.88;101409.38;10528818;28;20530;-83
2021/09/19 09:01:07;;;;;;;6.22;5.63;;;;;;;15.95;84.84;101401.56;10507198;28;20055;-82
2021/09/19 09:06:09;;;;;;;6.30;5.70;;;;;;;16.13;83.96;101405.06;10513208;28;20377;-83
2021/09/19 09:11:12;;;;;;;6.78;5.50;;;;;;;16.17;84.77;101400.72;10532631;28;20146;-83
2021/09/19 09:16:17;;;;;;;6.22;5.32;;;;;;;16.14;83.83;101392.88;10514886;28;20063;-84
2021/09/19 09:21:20;;;;;;;5.97;5.20;;;;;;;16.17;82.97;101406.81;10527786;28;20132;-83
2021/09/19 09:26:21;;;;;;;6.07;4.70;;;;;;;16.39;82.19;101404.19;10512025;28;20060;-84
2021/09/19 09:31:50;;;;;;;6.10;5.45;;;;;;;16.37;82.38;101405.94;10502199;28;20048;-83
2021/09/19 09:36:52;;;;;;;5.90;5.40;;;;;;;17.01;79.25;101402.41;10518631;28;20052;-84
2021/09/19 09:42:01;;;;;;;6.00;5.38;;;;;;;16.65;82.03;101405.03;10526689;28;20052;-84
2021/09/19 09:47:09;;;;;;;5.65;4.82;;;;;;;16.94;80.03;101406.78;10515810;28;20057;-83
2021/09/19 09:52:18;;;;;;;4.97;4.43;;;;;;;17.41;79.82;101408.34;10512664;28;20056;-83
2021/09/19 09:57:36;;;;;;;5.47;4.97;;;;;;;17.49;77.20;101407.47;10516830;28;20086;-85
2021/09/19 10:02:40;;;;;;;5.15;4.65;;;;;;;18.21;74.33;101398.34;10504267;28;20048;-85
2021/09/19 10:07:45;;;;;;;4.75;4.35;;;;;;;18.19;74.01;101402.69;10512949;28;20056;-85
2021/09/19 10:12:48;;;;;;;7.30;5.35;;;;;;;18.46;72.98;101396.38;10525648;28;20131;-85
2021/09/19 10:17:49;;;;;;;7.00;5.05;;;;;;;18.93;71.07;101388.06;10518225;28;20056;-85
2021/09/19 10:23:15;;;;;;;4.45;4.05;;;;;;;19.03;70.24;101388.84;10529207;28;20072;-85
2021/09/19 10:28:25;;;;;;;4.28;3.58;;;;;;;19.75;66.05;101383.56;10505705;28;20575;-85
2021/09/19 10:33:37;;;;;;;3.25;2.95;;;;;;;20.28;63.91;101378.38;10543067;28;20087;-85
2021/09/19 10:38:42;;;;;;;3.65;2.47;;;;;;;21.34;59.17;101377.31;10516198;28;20491;-85
2021/09/19 10:44:00;;;;;;;2.90;2.70;;;;;;;20.49;61.19;101380.66;10529771;28;20434;-89
2021/09/19 10:49:17;;;;;;;4.05;3.40;;;;;;;19.70;63.65;101377.50;10498297;28;20060;-88
2021/09/19 10:54:41;;;;;;;2.50;2.30;;;;;;;21.10;60.04;101382.16;10528746;28;20054;-85
2021/09/19 11:00:08;;;;;;;4.47;2.60;;;;;;;21.21;58.91;101384.53;10495475;28;20466;-87
2021/09/19 11:05:28;;;;;;;3.50;2.10;;;;;;;21.40;59.13;101379.81;10497923;28;20052;-84
2021/09/19 11:10:31;;;;;;;2.83;2.40;;;;;;;21.56;58.18;101377.72;10527006;28;20059;-84
2021/09/19 11:15:33;;;;;;;3.00;2.70;;;;;;;20.52;60.99;101379.72;10494906;28;20519;-83
2021/09/19 11:20:34;;;;;;;4.38;2.38;;;;;;;20.46;62.09;101380.72;10481141;28;20060;-85
2021/09/19 11:25:36;;;;;;;3.28;2.97;;;;;;;20.10;62.61;101377.78;10520346;28;20168;-83
2021/09/19 11:30:38;;;;;;;2.17;1.98;;;;;;;20.29;62.99;101382.72;10516550;28;20084;-84
2021/09/19 11:35:40;;;;;;;2.40;2.20;;;;;;;20.39;61.65;101377.28;10503100;28;20056;-83
2021/09/19 11:40:43;;;;;;;2.30;2.10;;;;;;;19.97;62.98;101378.00;10508545;28;20059;-84
2021/09/19 11:45:45;;;;;;;2.92;2.67;;;;;;;20.00;63.14;101378.81;10499624;28;20052;-84
2021/09/19 11:50:50;;;;;;;2.40;2.20;;;;;;;20.43;63.85;101386.00;10521933;28;20087;-85
2021/09/19 11:55:53;;;;;;;;;;;;;;;20.32;60.52;101383.56;10497786;28;20059;-88
2021/09/19 12:01:00;;;;;;;2.40;2.20;;;;;;;20.49;61.46;101383.28;10522045;28;19920;-85
2021/09/19 12:06:02;;;;;;;3.30;2.05;;;;;;;20.88;60.49;101375.56;10519420;28;20044;-85
2021/09/19 12:11:04;;;;;;;1.83;1.60;;;;;;;20.92;61.76;101364.06;10507166;28;20052;-85
2021/09/19 12:16:12;;;;;;;1.80;1.70;;;;;;;21.08;59.24;101365.50;10520500;28;20433;-83
2021/09/19 12:21:17;;;;;;;1.70;1.60;;;;;;;21.31;59.95;101357.16;10531514;28;20143;-84
2021/09/19 12:26:21;;;;;;;;;;;;;;;20.90;59.09;101369.38;10537896;28;20105;-84
2021/09/19 12:31:42;;;;;;;1.58;1.40;;;;;;;20.61;58.88;101356.78;10513488;28;19920;-84
2021/09/19 12:36:47;;;;;;;1.40;1.30;;;;;;;20.76;59.37;101349.47;10524323;28;20052;-84
2021/09/19 12:41:57;;;;;;;1.55;1.42;;;;;;;20.87;59.55;101344.88;10528277;28;20052;-84
2021/09/19 12:47:01;;;;;;;1.80;0.90;;;;;;;20.95;58.44;101340.34;10506244;28;20057;-84
2021/09/19 12:52:11;;;;;;;1.55;1.25;;;;;;;20.82;57.24;101333.59;10504967;28;20072;-86
2021/09/19 12:57:14;;;;;;;1.52;1.42;;;;;;;20.76;56.18;101329.34;10525400;28;20131;-86
2021/09/19 13:02:16;;;;;;;1.92;1.83;;;;;;;20.53;58.93;101323.63;10530397;28;20068;-86
2021/09/19 13:07:18;;;;;;;1.98;1.77;;;;;;;20.36;60.55;101321.25;10507813;28;20051;-85
2021/09/19 13:12:20;;;;;;;2.70;1.85;;;;;;;20.24;60.12;101324.13;10513354;28;20076;-83
2021/09/19 13:17:21;;;;;;;3.30;2.35;;;;;;;20.12;60.36;101327.81;10517415;28;20060;-86
2021/09/19 13:22:23;;;;;;;2.17;1.98;;;;;;;19.79;58.64;101316.97;10513338;28;20496;-84
2021/09/19 13:27:25;;;;;;;1.85;1.58;;;;;;;20.11;59.09;101312.97;10545302;28;20484;-85
2021/09/19 13:32:27;;;;;;;2.80;2.60;;;;;;;20.25;57.63;101313.59;10513328;28;20052;-84
2021/09/19 13:37:28;;;;;;;2.67;2.47;;;;;;;20.09;60.01;101328.75;10532204;28;20064;-83
2021/09/19 13:42:30;;;;;;;3.13;2.47;;;;;;;19.59;60.69;101317.28;10542815;28;20400;-81
2021/09/19 13:47:31;;;;;;;2.80;2.50;;;;;;;19.72;60.01;101323.22;10516083;28;20052;-82
2021/09/19 13:52:33;;;;;;;2.35;2.15;;;;;;;19.49;61.12;101325.28;10511626;28;20084;-82
2021/09/19 13:57:35;;;;;;;3.42;2.83;;;;;;;19.59;62.03;101330.41;10502212;28;20063;-83
2021/09/19 14:02:37;;;;;;;3.28;2.97;;;;;;;19.86;62.84;101333.50;10537677;28;20054;-85
2021/09/19 14:07:39;;;;;;;3.40;3.10;;;;;;;19.64;63.24;101326.84;10498061;28;20056;-83
2021/09/19 14:12:42;;;;;;;4.07;3.45;;;;;;;19.65;62.33;101323.34;10505432;28;20488;-83
2021/09/19 14:17:44;;;;;;;3.10;2.80;;;;;;;19.74;62.53;101324.06;10520409;28;20056;-84
2021/09/19 14:22:46;;;;;;;3.15;2.90;;;;;;;19.80;62.67;101326.59;10556023;28;20059;-84
2021/09/19 14:27:48;;;;;;;3.83;2.70;;;;;;;19.54;63.08;101328.72;10511572;28;20527;-84
2021/09/19 14:32:50;;;;;;;3.75;3.30;;;;;;;19.48;62.56;101334.91;10497414;28;20055;-84
2021/09/19 14:37:52;;;;;;;3.08;2.78;;;;;;;19.40;63.34;101338.50;10482829;28;20063;-84
2021/09/19 14:42:53;;;;;;;3.60;2.85;;;;;;;19.11;63.74;101334.50;10502650;28;20052;-82
2021/09/19 14:47:55;;;;;;;6.07;3.03;;;;;;;19.08;64.62;101336.34;10536022;28;20098;-82
2021/09/19 14:52:57;;;;;;;3.20;2.90;;;;;;;18.95;65.12;101348.72;10495541;28;20495;-82
2021/09/19 14:57:58;;;;;;;3.60;3.00;;;;;;;18.79;66.25;101345.41;10517117;28;20067;-82
2021/09/19 15:03:00;;;;;;;3.13;2.90;;;;;;;18.56;67.20;101345.63;10523303;28;20063;-83
2021/09/19 15:08:03;;;;;;;5.00;3.78;;;;;;;18.65;67.53;101342.00;10530245;28;20064;-82
2021/09/19 15:13:04;;;;;;;3.50;3.20;;;;;;;18.62;67.35;101342.94;10515985;28;20109;-81
2021/09/19 15:18:06;;;;;;;4.57;3.35;;;;;;;18.64;65.93;101351.63;10491674;28;20472;-82
2021/09/19 15:23:07;;;;;;;3.13;2.83;;;;;;;18.56;64.01;101348.25;10509786;28;20377;-83
2021/09/19 15:28:09;;;;;;;6.07;5.20;;;;;;;18.59;64.69;101339.47;10526986;28;20075;-84
2021/09/19 15:33:10;;;;;;;14.23;10.57;;;;;;;18.50;64.39;101343.06;10523073;28;20064;-83
2021/09/19 15:38:12;;;;;;;6.82;5.93;;;;;;;18.44;64.91;101344.00;10513328;28;20051;-82
2021/09/19 15:43:13;;;;;;;13.68;10.95;;;;;;;18.56;64.91;101350.00;10493965;28;20484;-83
2021/09/19 15:48:16;;;;;;;12.50;8.95;;;;;;;18.54;65.82;101336.88;10518028;28;20056;-83
2021/09/19 15:53:19;;;;;;;4.88;2.80;;;;;;;18.48;66.83;101342.19;10498026;28;20048;-83
2021/09/19 15:58:22;;;;;;;5.57;3.08;;;;;;;18.30;67.73;101345.00;10499770;28;20062;-83
2021/09/19 16:03:28;;;;;;;2.90;2.25;;;;;;;18.23;67.12;101357.28;10513416;28;20048;-82
2021/09/19 16:08:30;;;;;;;5.40;3.20;;;;;;;18.11;67.19;101366.09;10507258;28;20072;-81
2021/09/19 16:13:32;;;;;;;2.40;2.10;;;;;;;18.08;66.69;101360.00;10506916;28;20052;-82
2021/09/19 16:18:34;;;;;;;4.93;4.50;;;;;;;17.90;68.05;101363.63;10498720;28;20054;-82
2021/09/19 16:23:35;;;;;;;6.35;4.95;;;;;;;17.84;68.54;101372.41;10530494;28;20055;-82
2021/09/19 16:28:37;;;;;;;6.18;5.57;;;;;;;17.84;68.70;101371.53;10512992;28;20056;-82
2021/09/19 16:33:38;;;;;;;7.90;5.50;;;;;;;17.76;69.91;101374.22;10515245;28;20056;-81
2021/09/19 16:38:40;;;;;;;5.63;4.13;;;;;;;17.58;70.41;101369.91;10529942;28;20504;-81
2021/09/19 16:43:41;;;;;;;6.00;5.25;;;;;;;17.46;71.15;101383.03;10516533;28;20059;-82
2021/09/19 16:48:43;;;;;;;5.00;4.47;;;;;;;17.34;72.31;101381.34;10493065;28;20056;-81
2021/09/19 16:53:44;;;;;;;4.05;3.67;;;;;;;17.22;73.00;101382.28;10520104;28;20052;-82
2021/09/19 16:58:46;;;;;;;3.92;3.00;;;;;;;17.15;74.02;101392.78;10493025;28;20075;-81
2021/09/19 17:03:49;;;;;;;6.63;2.92;;;;;;;17.05;73.37;101397.16;10494776;28;20052;-81
2021/09/19 17:08:50;;;;;;;3.90;2.70;;;;;;;16.87;73.42;101390.25;10506753;28;20144;-81
2021/09/19 17:13:52;;;;;;;3.10;2.80;;;;;;;16.75;73.82;101402.47;10506630;28;20051;-81
2021/09/19 17:18:54;;;;;;;3.30;3.00;;;;;;;16.69;74.47;101398.97;10525828;28;20590;-83
2021/09/19 17:23:56;;;;;;;3.15;2.35;;;;;;;16.63;74.07;101408.56;10517433;28;20052;-83
2021/09/19 17:28:58;;;;;;;4.82;2.83;;;;;;;16.58;74.18;101412.91;10503949;28;20067;-82
2021/09/19 17:34:01;;;;;;;2.63;2.42;;;;;;;16.58;73.67;101419.00;10502322;28;20052;-84
2021/09/19 17:39:03;;;;;;;2.95;2.58;;;;;;;16.49;72.92;101418.13;10531459;28;20519;-84
2021/09/19 17:44:06;;;;;;;3.08;2.85;;;;;;;16.48;72.31;101424.22;10529832;28;20055;-83
2021/09/19 17:49:08;;;;;;;4.93;2.63;;;;;;;16.35;72.85;101432.06;10513137;28;20135;-84
2021/09/19 17:54:10;;;;;;;4.13;2.70;;;;;;;16.27;73.42;101423.34;10511669;28;20056;-84
2021/09/19 17:59:12;;;;;;;3.13;2.83;;;;;;;16.18;73.49;101433.78;10519209;28;20123;-83
2021/09/19 18:04:16;;;;;;;4.80;2.63;;;;;;;16.14;73.85;101435.50;10506355;28;20044;-85
2021/09/19 18:09:19;;;;;;;3.35;3.03;;;;;;;16.02;73.72;101443.31;10524456;28;20684;-83
2021/09/19 18:14:21;;;;;;;5.60;2.83;;;;;;;16.05;73.56;101439.84;10511374;28;20144;-84
2021/09/19 18:19:24;;;;;;;2.78;2.58;;;;;;;15.97;73.50;101444.19;10505235;28;20106;-83
2021/09/19 18:24:27;;;;;;;3.75;2.70;;;;;;;15.84;73.17;101458.94;10505585;28;20058;-82
2021/09/19 18:29:31;;;;;;;4.57;4.13;;;;;;;15.82;73.83;101458.06;10532125;28;20048;-83
2021/09/19 18:34:33;;;;;;;4.00;3.22;;;;;;;15.73;74.30;101460.66;10519765;28;20051;-83
2021/09/19 18:39:35;;;;;;;4.53;3.10;;;;;;;15.63;74.82;101460.59;10503309;28;20044;-82
2021/09/19 18:44:38;;;;;;;4.07;3.15;;;;;;;15.55;75.15;101458.81;10495994;28;20044;-82
2021/09/19 18:49:39;;;;;;;4.05;3.65;;;;;;;15.42;76.29;101470.03;10520522;28;20534;-82
2021/09/19 18:54:41;;;;;;;4.78;3.60;;;;;;;15.35;77.01;101469.13;10520305;28;20105;-84
2021/09/19 18:59:43;;;;;;;5.57;3.88;;;;;;;15.22;78.11;101475.16;10514858;28;20055;-83
2021/09/19 19:04:45;;;;;;;4.43;3.83;;;;;;;15.11;78.55;101477.69;10510403;28;20055;-82
2021/09/19 19:09:48;;;;;;;4.05;3.65;;;;;;;15.04;79.51;101481.13;10541477;28;20119;-82
2021/09/19 19:14:53;;;;;;;3.67;3.38;;;;;;;14.98;79.98;101488.91;10525023;28;20113;-83
2021/09/19 19:19:55;;;;;;;6.97;4.15;;;;;;;14.85;80.36;101490.50;10514165;28;20113;-83
2021/09/19 19:24:59;;;;;;;5.70;3.80;;;;;;;14.76;80.56;101493.06;10518106;28;20040;-83
2021/09/19 19:30:00;;;;;;;7.50;4.72;;;;;;;14.66;81.48;101501.66;10500766;28;20535;-83
2021/09/19 19:35:04;;;;;;;6.18;4.07;;;;;;;14.55;82.13;101504.16;10516850;28;20064;-84
2021/09/19 19:40:10;;;;;;;4.93;4.28;;;;;;;14.42;82.10;101499.69;10526508;28;20515;-83
2021/09/19 19:45:16;;;;;;;4.47;3.70;;;;;;;14.30;81.13;101516.06;10520436;28;20052;-81
2021/09/19 19:50:19;;;;;;;5.18;4.10;;;;;;;14.18;81.56;101518.50;10511667;28;20060;-82
2021/09/19 19:55:21;;;;;;;8.10;4.00;;;;;;;14.08;81.10;101516.69;10505400;28;20131;-83
2021/09/19 20:00:24;;;;;;;5.78;4.45;;;;;;;14.00;79.92;101529.56;10495101;28;20055;-83
2021/09/19 20:05:26;;;;;;;7.40;4.32;;;;;;;13.91;79.74;101532.09;10498079;28;20049;-83
2021/09/19 20:10:27;;;;;;;5.22;4.15;;;;;;;13.85;79.68;101532.00;10505266;28;20458;-82
2021/09/19 20:15:29;;;;;;;6.63;4.40;;;;;;;13.74;79.39;101544.88;10502535;28;20056;-80
2021/09/19 20:20:31;;;;;;;6.00;3.88;;;;;;;13.69;80.54;101546.53;10515669;28;20064;-80
2021/09/19 20:25:32;;;;;;;5.60;4.03;;;;;;;13.59;81.18;101555.06;10518889;28;20063;-80
2021/09/19 20:30:34;;;;;;;5.22;4.68;;;;;;;13.49;80.96;101556.66;10538697;28;20060;-80
2021/09/19 20:35:36;;;;;;;4.55;3.88;;;;;;;13.47;81.56;101556.63;10519528;28;20063;-80
2021/09/19 20:40:37;;;;;;;5.85;4.20;;;;;;;13.38;81.71;101568.59;10512109;28;20373;-80
2021/09/19 20:45:39;;;;;;;5.22;4.00;;;;;;;13.28;82.44;101565.03;10498669;28;20394;-80
2021/09/19 20:50:41;;;;;;;5.43;4.30;;;;;;;13.22;82.70;101571.00;10510828;28;20056;-81
2021/09/19 20:55:43;;;;;;;6.00;4.93;;;;;;;13.13;83.12;101578.59;10510777;28;20052;-80
2021/09/19 21:00:44;;;;;;;5.80;4.03;;;;;;;13.08;83.46;101579.38;10507146;28;20048;-80
2021/09/19 21:05:46;;;;;;;5.90;5.03;;;;;;;13.00;83.24;101584.44;10522552;28;20575;-80
2021/09/19 21:10:47;;;;;;;6.60;4.60;;;;;;;12.99;83.17;101583.59;10546519;28;20420;-81
2021/09/19 21:15:49;;;;;;;7.20;4.72;;;;;;;12.96;83.53;101593.03;10545798;28;20054;-80
2021/09/19 21:20:52;;;;;;;5.50;4.93;;;;;;;12.82;83.71;101586.72;10532440;28;20539;-80
2021/09/19 21:25:53;;;;;;;5.28;4.28;;;;;;;12.84;84.09;101596.28;10522866;28;20183;-80
2021/09/19 21:30:57;;;;;;;5.55;4.50;;;;;;;12.77;84.20;101598.75;10500144;28;20067;-80
2021/09/19 21:35:58;;;;;;;4.70;4.30;;;;;;;12.71;84.16;101599.53;10525816;28;20052;-80
2021/09/19 21:41:00;;;;;;;9.25;5.43;;;;;;;12.64;84.26;101603.72;10525557;28;20063;-80
2021/09/19 21:46:01;;;;;;;6.72;5.55;;;;;;;12.66;84.49;101601.16;10523621;28;20063;-81
2021/09/19 21:51:03;;;;;;;6.85;4.50;;;;;;;12.58;84.69;101606.19;10494293;28;20102;-81
2021/09/19 21:56:05;;;;;;;6.40;5.20;;;;;;;12.54;84.54;101613.91;10518600;28;20053;-80
2021/09/19 22:01:07;;;;;;;7.90;4.72;;;;;;;12.55;82.70;101607.88;10528688;28;20053;-81
2021/09/19 22:06:08;;;;;;;4.80;4.22;;;;;;;12.53;81.39;101619.94;10483046;28;20052;-80
2021/09/19 22:11:14;;;;;;;7.32;5.10;;;;;;;12.51;80.89;101617.31;10485530;28;20412;-80
2021/09/19 22:16:15;;;;;;;6.47;4.40;;;;;;;12.47;80.43;101618.09;10520547;28;20058;-81
2021/09/19 22:21:18;;;;;;;5.80;4.90;;;;;;;12.47;79.28;101616.38;10540493;28;20135;-80
2021/09/19 22:26:19;;;;;;;8.60;4.82;;;;;;;12.45;78.83;101622.38;10513543;28;20059;-80
2021/09/19 22:31:21;;;;;;;6.28;5.45;;;;;;;12.38;78.50;101634.38;10500339;28;20063;-79
2021/09/19 22:36:23;;;;;;;5.57;4.43;;;;;;;12.39;78.95;101628.31;10499541;28;20105;-80
2021/09/19 22:41:25;;;;;;;5.78;4.22;;;;;;;12.41;78.12;101636.13;10504318;28;20056;-79
2021/09/19 22:46:27;;;;;;;7.07;5.03;;;;;;;12.34;78.07;101642.94;10502373;28;20063;-79
2021/09/19 22:51:29;;;;;;;4.82;4.32;;;;;;;12.37;78.25;101642.13;10507287;28;20056;-80
2021/09/19 22:56:31;;;;;;;6.65;4.53;;;;;;;12.38;77.75;101643.88;10499735;28;20056;-80
2021/09/19 23:01:32;;;;;;;5.93;4.40;;;;;;;12.31;77.73;101652.34;10505226;28;20056;-80